createdAt,value
2019-02-08T00:03:12.442Z,11.83
2019-02-08T00:07:17.744Z,12.43
2019-02-08T00:11:23.155Z,12.50
2019-02-08T00:15:28.900Z,11.87
2019-02-08T00:19:34.095Z,10.80
2019-02-08T00:23:39.304Z,12.27
2019-02-08T00:27:44.506Z,11.53
2019-02-08T00:31:49.691Z,11.60
2019-02-08T00:35:55.056Z,13.90
2019-02-08T00:40:00.839Z,11.70
2019-02-08T00:44:06.282Z,14.33
2019-02-08T00:48:11.539Z,14.13
2019-02-08T00:52:16.901Z,12.70
2019-02-08T00:56:22.314Z,12.20
2019-02-08T01:00:28.009Z,13.20
2019-02-08T01:04:33.300Z,12.47
2019-02-08T01:08:38.752Z,14.10
2019-02-08T01:12:43.880Z,13.30
2019-02-08T01:16:49.229Z,12.37
2019-02-08T01:20:54.582Z,10.47
2019-02-08T01:25:00.053Z,13.67
2019-02-08T01:29:05.615Z,14.23
2019-02-08T01:33:10.859Z,12.27
2019-02-08T01:37:16.244Z,12.10
2019-02-08T01:41:21.491Z,12.50
2019-02-08T01:45:28.537Z,9.97
2019-02-08T01:49:33.791Z,11.90
2019-02-08T01:53:39.146Z,11.57
2019-02-08T01:57:44.915Z,10.53
2019-02-08T02:01:50.384Z,14.13
2019-02-08T02:05:55.709Z,11.20
2019-02-08T02:10:00.910Z,10.00
2019-02-08T02:14:06.769Z,13.87
2019-02-08T02:18:13.145Z,12.37
2019-02-08T02:22:18.358Z,13.87
2019-02-08T02:26:23.687Z,11.50
2019-02-08T02:30:33.766Z,9.30
2019-02-08T02:34:39.127Z,11.60
2019-02-08T02:38:44.322Z,12.23
2019-02-08T02:42:50.140Z,12.77
2019-02-08T02:46:55.411Z,13.17
2019-02-08T02:51:00.792Z,12.90
2019-02-08T02:55:06.858Z,10.63
2019-02-08T02:59:12.270Z,11.50
2019-02-08T03:03:18.345Z,13.30
2019-02-08T03:07:23.675Z,10.90
2019-02-08T03:11:28.882Z,11.10
2019-02-08T03:15:34.147Z,10.27
2019-02-08T03:19:39.399Z,11.97
2019-02-08T03:23:44.595Z,13.67
2019-02-08T03:27:50.082Z,11.13
2019-02-08T03:31:55.315Z,13.73
2019-02-08T03:36:00.617Z,12.47
2019-02-08T03:40:08.822Z,13.33
2019-02-08T03:44:14.293Z,13.20
2019-02-08T03:48:19.575Z,13.60
2019-02-08T03:52:24.964Z,11.63
2019-02-08T03:56:30.114Z,13.77
2019-02-08T04:00:42.765Z,13.87
2019-02-08T04:04:48.271Z,15.10
2019-02-08T04:08:53.758Z,11.90
2019-02-08T04:12:58.946Z,12.53
2019-02-08T04:17:04.143Z,14.40
2019-02-08T04:21:09.348Z,10.90
2019-02-08T04:25:16.000Z,13.60
2019-02-08T04:29:24.451Z,11.73
2019-02-08T04:33:29.793Z,13.43
2019-02-08T04:37:35.158Z,13.70
2019-02-08T04:41:40.363Z,11.27
2019-02-08T04:45:45.859Z,13.20
2019-02-08T04:49:51.083Z,13.90
2019-02-08T04:53:56.432Z,12.60
2019-02-08T04:58:02.032Z,13.57
2019-02-08T05:02:07.447Z,13.63
2019-02-08T05:06:12.687Z,15.17
2019-02-08T05:10:20.725Z,13.80
2019-02-08T05:14:25.951Z,14.20
2019-02-08T05:18:31.171Z,14.00
2019-02-08T05:22:36.618Z,14.47
2019-02-08T05:26:41.953Z,14.17
2019-02-08T05:30:47.274Z,13.03
2019-02-08T05:34:52.520Z,12.40
2019-02-08T05:38:57.785Z,13.27
2019-02-08T05:43:03.316Z,13.93
2019-02-08T05:47:08.634Z,13.13
2019-02-08T05:51:14.115Z,13.80
2019-02-08T05:55:21.249Z,13.53
2019-02-08T05:59:26.560Z,10.70
2019-02-08T06:03:32.154Z,14.23
2019-02-08T06:07:37.660Z,11.40
2019-02-08T06:11:43.117Z,13.30
2019-02-08T06:15:48.805Z,14.07
2019-02-08T06:19:57.108Z,13.33
2019-02-08T06:24:03.066Z,13.33
2019-02-08T06:28:09.271Z,14.90
2019-02-08T06:32:14.749Z,16.67
2019-02-08T06:36:20.125Z,12.40
2019-02-08T06:40:26.562Z,14.30
2019-02-08T06:44:31.925Z,15.40
2019-02-08T06:48:37.820Z,14.93
2019-02-08T06:52:43.455Z,15.20
2019-02-08T06:57:07.955Z,13.07
2019-02-08T07:01:31.443Z,12.57
2019-02-08T07:05:54.623Z,16.63
2019-02-08T07:10:17.873Z,17.40
2019-02-08T07:14:41.096Z,16.37
2019-02-08T07:19:11.740Z,16.20
2019-02-08T07:23:34.655Z,13.53
2019-02-08T07:28:01.946Z,17.07
2019-02-08T07:32:30.232Z,14.57
2019-02-08T07:36:54.774Z,15.60
2019-02-08T07:41:24.488Z,16.47
2019-02-08T07:45:49.859Z,15.67
2019-02-08T07:50:20.249Z,16.80
2019-02-08T07:54:51.987Z,15.10
2019-02-08T07:59:31.531Z,12.37
2019-02-08T08:04:01.170Z,11.43
2019-02-08T08:08:27.210Z,15.57
2019-02-08T08:12:51.195Z,15.63
2019-02-08T08:17:07.485Z,14.40
2019-02-08T08:21:32.160Z,15.50
2019-02-08T08:26:04.446Z,13.83
2019-02-08T08:30:25.515Z,14.50
2019-02-08T08:34:56.291Z,13.80
2019-02-08T08:39:51.596Z,14.93
2019-02-08T08:44:21.087Z,14.40
2019-02-08T08:49:01.654Z,16.20
2019-02-08T08:53:44.020Z,13.93
2019-02-08T08:58:36.022Z,13.87
2019-02-08T09:03:23.603Z,14.40
2019-02-08T09:08:24.898Z,14.70
2019-02-08T09:13:02.670Z,13.03
2019-02-08T09:17:53.177Z,14.60
2019-02-08T09:22:14.404Z,14.10
2019-02-08T09:27:12.663Z,13.47
2019-02-08T09:32:25.779Z,11.30
2019-02-08T09:37:10.694Z,12.70
2019-02-08T09:41:43.860Z,10.07
2019-02-08T09:46:38.837Z,14.63
2019-02-08T09:51:47.011Z,12.43
2019-02-08T09:56:15.253Z,13.10
2019-02-08T10:01:00.117Z,13.63
2019-02-08T10:05:45.474Z,14.10
2019-02-08T10:10:52.332Z,16.50
2019-02-08T10:15:37.386Z,14.47
2019-02-08T10:20:32.584Z,13.40
2019-02-08T10:25:42.593Z,13.93
2019-02-08T10:30:23.324Z,13.83
2019-02-08T10:35:12.209Z,12.33
2019-02-08T10:39:57.786Z,13.43
2019-02-08T10:44:33.875Z,13.67
2019-02-08T10:49:15.418Z,13.37
2019-02-08T10:54:07.839Z,11.77
2019-02-08T10:59:04.675Z,13.50
2019-02-08T11:03:52.909Z,10.00
2019-02-08T11:08:33.456Z,11.60
2019-02-08T11:13:20.641Z,11.80
2019-02-08T11:18:01.833Z,9.90
2019-02-08T11:22:06.823Z,8.87
2019-02-08T11:26:11.821Z,12.83
2019-02-08T11:30:18.193Z,9.93
2019-02-08T11:34:23.086Z,9.37
2019-02-08T11:38:28.147Z,8.37
2019-02-08T11:42:33.062Z,7.40
2019-02-08T11:46:38.118Z,8.63
2019-02-08T11:50:43.332Z,9.27
2019-02-08T11:54:48.352Z,9.10
2019-02-08T11:58:53.341Z,9.30
2019-02-08T12:02:58.320Z,9.20
2019-02-08T12:07:03.199Z,8.40
2019-02-08T12:11:08.307Z,7.00
2019-02-08T12:15:15.693Z,7.40
2019-02-08T12:19:20.609Z,8.03
2019-02-08T12:23:25.700Z,8.03
2019-02-08T12:27:30.607Z,7.70
2019-02-08T12:31:35.672Z,6.97
2019-02-08T12:35:40.750Z,6.93
2019-02-08T12:39:45.618Z,7.53
2019-02-08T12:43:50.740Z,9.00
2019-02-08T12:47:55.975Z,6.60
2019-02-08T12:52:00.970Z,6.67
2019-02-08T12:56:06.156Z,6.30
2019-02-08T13:00:14.719Z,7.83
2019-02-08T13:04:20.542Z,7.53
2019-02-08T13:08:25.481Z,6.17
2019-02-08T13:12:30.382Z,7.13
2019-02-08T13:16:35.429Z,7.80
2019-02-08T13:20:40.344Z,6.70
2019-02-08T13:24:45.684Z,5.90
2019-02-08T13:28:50.847Z,5.90
2019-02-08T13:32:55.851Z,7.97
2019-02-08T13:37:00.826Z,7.03
2019-02-08T13:41:05.939Z,7.60
2019-02-08T13:45:11.660Z,7.87
2019-02-08T13:49:16.543Z,7.23
2019-02-08T13:53:22.629Z,8.23
2019-02-08T13:57:28.642Z,7.97
2019-02-08T14:01:34.215Z,15.73
2019-02-08T14:05:39.684Z,8.37
2019-02-08T14:09:44.916Z,6.20
2019-02-08T14:13:50.272Z,6.93
2019-02-08T14:17:55.481Z,6.00
2019-02-08T14:22:01.153Z,6.30
2019-02-08T14:26:06.451Z,6.17
2019-02-08T14:30:21.443Z,5.67
2019-02-08T14:34:26.614Z,5.53
2019-02-08T14:38:32.439Z,7.20
2019-02-08T14:42:37.737Z,5.80
2019-02-08T14:46:43.387Z,6.10
2019-02-08T14:50:48.613Z,7.00
2019-02-08T14:54:54.882Z,6.03
2019-02-08T14:59:02.572Z,5.00
2019-02-08T15:03:08.073Z,5.97
2019-02-08T15:07:14.412Z,5.70
2019-02-08T15:11:20.486Z,4.93
2019-02-08T15:15:26.929Z,5.10
2019-02-08T15:19:33.396Z,5.00
2019-02-08T15:23:39.224Z,4.50
2019-02-08T15:27:44.868Z,4.50
2019-02-08T15:31:50.562Z,5.20
2019-02-08T15:35:55.890Z,4.80
2019-02-08T15:40:01.985Z,5.80
2019-02-08T15:44:07.345Z,4.60
2019-02-08T15:48:13.033Z,3.83
2019-02-08T15:52:19.002Z,4.20
2019-02-08T15:56:24.425Z,5.77
2019-02-08T16:00:48.408Z,10.00
2019-02-08T16:04:53.345Z,5.97
2019-02-08T16:08:58.346Z,6.07
2019-02-08T16:13:03.275Z,6.17
2019-02-08T16:17:08.610Z,6.20
2019-02-08T16:21:13.829Z,7.10
2019-02-08T16:25:19.534Z,6.87
2019-02-08T16:29:24.791Z,7.03
2019-02-08T16:33:29.692Z,9.57
2019-02-08T16:37:34.627Z,7.13
2019-02-08T16:41:39.591Z,7.97
2019-02-08T16:45:44.664Z,7.83
2019-02-08T16:49:49.800Z,8.40
2019-02-08T16:53:55.130Z,9.50
2019-02-08T16:58:00.433Z,8.87
2019-02-08T17:02:06.358Z,7.70
2019-02-08T17:06:11.710Z,9.97
2019-02-08T17:10:17.722Z,10.00
2019-02-08T17:14:22.920Z,10.97
2019-02-08T17:18:27.807Z,9.67
2019-02-08T17:22:32.751Z,8.00
2019-02-08T17:26:37.696Z,10.00
2019-02-08T17:30:43.115Z,9.20
2019-02-08T17:34:48.230Z,10.37
2019-02-08T17:38:53.256Z,8.23
2019-02-08T17:42:58.242Z,14.13
2019-02-08T17:47:04.411Z,10.37
2019-02-08T17:51:09.349Z,12.63
2019-02-08T17:55:15.499Z,9.80
2019-02-08T17:59:20.609Z,9.87
2019-02-08T18:03:25.636Z,10.77
2019-02-08T18:07:30.557Z,10.50
2019-02-08T18:11:35.622Z,9.70
2019-02-08T18:15:40.537Z,10.03
2019-02-08T18:19:45.731Z,10.30
2019-02-08T18:23:51.339Z,12.40
2019-02-08T18:27:56.762Z,10.23
2019-02-08T18:32:02.008Z,10.17
2019-02-08T18:36:07.347Z,11.90
2019-02-08T18:40:14.916Z,12.20
2019-02-08T18:44:21.317Z,11.70
2019-02-08T18:48:26.498Z,10.00
2019-02-08T18:52:31.854Z,12.80
2019-02-08T18:56:37.652Z,9.97
2019-02-08T19:00:45.663Z,15.27
2019-02-08T19:04:53.024Z,10.47
2019-02-08T19:08:58.257Z,11.53
2019-02-08T19:13:03.620Z,11.03
2019-02-08T19:17:08.873Z,10.10
2019-02-08T19:21:14.339Z,10.80
2019-02-08T19:25:29.917Z,13.30
2019-02-08T19:29:35.145Z,12.90
2019-02-08T19:33:40.442Z,9.30
2019-02-08T19:37:46.058Z,12.70
2019-02-08T19:41:51.431Z,12.80
2019-02-08T19:45:56.778Z,12.47
2019-02-08T19:50:02.067Z,14.17
2019-02-08T19:54:09.485Z,11.87
2019-02-08T19:58:14.723Z,10.70
2019-02-08T20:02:20.362Z,11.10
2019-02-08T20:06:25.609Z,10.17
2019-02-08T20:10:33.394Z,13.70
2019-02-08T20:14:39.006Z,10.60
2019-02-08T20:18:46.013Z,12.17
2019-02-08T20:22:51.319Z,11.87
2019-02-08T20:26:57.579Z,13.07
2019-02-08T20:31:02.815Z,11.40
2019-02-08T20:35:27.984Z,12.07
2019-02-08T20:39:33.124Z,14.43
2019-02-08T20:43:38.355Z,13.57
2019-02-08T20:47:43.776Z,13.30
2019-02-08T20:51:49.326Z,13.23
2019-02-08T20:55:55.026Z,11.87
2019-02-08T21:00:00.343Z,12.43
2019-02-08T21:04:06.114Z,12.90
2019-02-08T21:08:11.789Z,12.30
2019-02-08T21:12:17.144Z,13.53
2019-02-08T21:16:22.382Z,12.57
2019-02-08T21:20:27.986Z,14.63
2019-02-08T21:24:33.473Z,14.20
2019-02-08T21:28:38.671Z,11.83
2019-02-08T21:32:44.244Z,12.10
2019-02-08T21:36:49.660Z,12.23
2019-02-08T21:40:55.157Z,11.43
2019-02-08T21:45:00.444Z,15.63
2019-02-08T21:49:06.859Z,14.43
2019-02-08T21:53:12.257Z,14.20
2019-02-08T21:57:17.577Z,13.57
2019-02-08T22:01:22.840Z,11.90
2019-02-08T22:05:33.091Z,11.90
2019-02-08T22:09:38.442Z,9.70
2019-02-08T22:13:43.534Z,11.87
2019-02-08T22:17:48.927Z,12.03
2019-02-08T22:21:54.169Z,12.90
2019-02-08T22:25:59.634Z,9.90
2019-02-08T22:30:06.681Z,11.20
2019-02-08T22:34:11.895Z,10.57
2019-02-08T22:38:17.602Z,13.40
2019-02-08T22:42:23.397Z,12.10
2019-02-08T22:46:28.590Z,12.63
2019-02-08T22:50:34.040Z,11.10
2019-02-08T22:54:39.366Z,14.23
2019-02-08T22:58:44.874Z,12.37
2019-02-08T23:02:50.672Z,13.73
2019-02-08T23:06:55.870Z,12.00
2019-02-08T23:11:01.494Z,13.83
2019-02-08T23:15:07.936Z,13.00
2019-02-08T23:19:13.300Z,11.50
2019-02-08T23:23:18.633Z,13.43
2019-02-08T23:27:24.283Z,14.60
2019-02-08T23:31:29.530Z,10.90
2019-02-08T23:35:41.842Z,9.43
2019-02-08T23:39:41.673Z,11.90
2019-02-08T23:43:46.982Z,10.97
2019-02-08T23:47:52.539Z,11.77
2019-02-08T23:51:57.799Z,11.80
2019-02-08T23:56:03.057Z,12.40
